sensor_id;sensor_type;location;lat;lon;timestamp;pressure;altitude;pressure_sealevel;temperature;humidity
36010;BME280;22076;52.182;5.404;2023-09-07T00:00:31;102232.53;;;29.40;100.00
36010;BME280;22076;52.182;5.404;2023-09-07T00:02:58;102228.53;;;29.36;100.00
36010;BME280;22076;52.182;5.404;2023-09-07T00:05:25;102222.84;;;29.31;100.00
36010;BME280;22076;52.182;5.404;2023-09-07T00:07:53;102219.16;;;29.32;100.00
36010;BME280;22076;52.182;5.404;2023-09-07T00:10:22;102223.22;;;29.28;100.00
36010;BME280;22076;52.182;5.404;2023-09-07T00:12:50;102220.50;;;29.20;100.00
36010;BME280;22076;52.182;5.404;2023-09-07T00:15:17;102212.81;;;29.16;100.00
36010;BME280;22076;52.182;5.404;2023-09-07T00:17:45;102212.00;;;29.08;100.00
36010;BME280;22076;52.182;5.404;2023-09-07T00:20:12;102215.38;;;29.10;100.00
36010;BME280;22076;52.182;5.404;2023-09-07T00:22:40;102215.06;;;29.05;100.00
36010;BME280;22076;52.182;5.404;2023-09-07T00:25:08;102210.88;;;29.02;100.00
36010;BME280;22076;52.182;5.404;2023-09-07T00:27:35;102209.94;;;28.87;100.00
36010;BME280;22076;52.182;5.404;2023-09-07T00:30:02;102208.22;;;28.94;100.00
36010;BME280;22076;52.182;5.404;2023-09-07T00:32:29;102203.88;;;28.84;100.00
36010;BME280;22076;52.182;5.404;2023-09-07T00:34:56;102212.00;;;28.76;100.00
36010;BME280;22076;52.182;5.404;2023-09-07T00:37:22;102207.75;;;28.82;100.00
36010;BME280;22076;52.182;5.404;2023-09-07T00:39:49;102206.59;;;28.76;100.00
36010;BME280;22076;52.182;5.404;2023-09-07T00:42:22;102202.22;;;28.83;100.00
36010;BME280;22076;52.182;5.404;2023-09-07T00:44:49;102201.63;;;28.57;100.00
36010;BME280;22076;52.182;5.404;2023-09-07T00:47:16;102204.81;;;28.52;100.00
36010;BME280;22076;52.182;5.404;2023-09-07T00:49:43;102204.00;;;28.43;100.00
36010;BME280;22076;52.182;5.404;2023-09-07T00:52:10;102193.94;;;28.37;100.00
36010;BME280;22076;52.182;5.404;2023-09-07T00:54:37;102199.28;;;28.45;100.00
36010;BME280;22076;52.182;5.404;2023-09-07T00:57:06;102196.94;;;28.42;100.00
36010;BME280;22076;52.182;5.404;2023-09-07T00:59:34;102186.56;;;28.39;100.00
36010;BME280;22076;52.182;5.404;2023-09-07T01:02:01;102191.75;;;28.32;100.00
36010;BME280;22076;52.182;5.404;2023-09-07T01:04:30;102192.94;;;28.38;100.00
36010;BME280;22076;52.182;5.404;2023-09-07T01:07:02;102193.19;;;28.60;100.00
36010;BME280;22076;52.182;5.404;2023-09-07T01:09:30;102194.94;;;28.44;100.00
36010;BME280;22076;52.182;5.404;2023-09-07T01:11:58;102187.88;;;28.35;100.00
36010;BME280;22076;52.182;5.404;2023-09-07T01:14:25;102190.28;;;28.22;100.00
36010;BME280;22076;52.182;5.404;2023-09-07T01:16:53;102188.09;;;28.25;100.00
36010;BME280;22076;52.182;5.404;2023-09-07T01:19:20;102196.16;;;28.17;100.00
36010;BME280;22076;52.182;5.404;2023-09-07T01:21:48;102184.06;;;28.21;100.00
36010;BME280;22076;52.182;5.404;2023-09-07T01:24:15;102189.13;;;28.16;100.00
36010;BME280;22076;52.182;5.404;2023-09-07T01:26:43;102188.97;;;28.09;100.00
36010;BME280;22076;52.182;5.404;2023-09-07T01:29:14;102193.16;;;28.12;100.00
36010;BME280;22076;52.182;5.404;2023-09-07T01:31:42;102186.28;;;28.09;100.00
36010;BME280;22076;52.182;5.404;2023-09-07T01:34:08;102192.66;;;28.08;100.00
36010;BME280;22076;52.182;5.404;2023-09-07T01:36:35;102186.59;;;28.06;100.00
36010;BME280;22076;52.182;5.404;2023-09-07T01:39:04;102186.09;;;28.11;100.00
36010;BME280;22076;52.182;5.404;2023-09-07T01:41:32;102187.09;;;28.01;100.00
36010;BME280;22076;52.182;5.404;2023-09-07T01:43:58;102185.91;;;27.96;100.00
36010;BME280;22076;52.182;5.404;2023-09-07T01:46:25;102181.22;;;27.98;100.00
36010;BME280;22076;52.182;5.404;2023-09-07T01:48:52;102186.09;;;27.94;100.00
36010;BME280;22076;52.182;5.404;2023-09-07T01:51:18;102182.41;;;27.95;100.00
36010;BME280;22076;52.182;5.404;2023-09-07T01:53:47;102180.03;;;28.00;100.00
36010;BME280;22076;52.182;5.404;2023-09-07T01:56:15;102177.03;;;27.95;100.00
36010;BME280;22076;52.182;5.404;2023-09-07T01:58:42;102173.84;;;27.83;100.00
36010;BME280;22076;52.182;5.404;2023-09-07T02:01:20;102181.53;;;27.95;100.00
36010;BME280;22076;52.182;5.404;2023-09-07T02:03:47;102180.22;;;27.82;100.00
36010;BME280;22076;52.182;5.404;2023-09-07T02:06:13;102174.84;;;27.82;100.00
36010;BME280;22076;52.182;5.404;2023-09-07T02:08:40;102170.84;;;27.78;100.00
36010;BME280;22076;52.182;5.404;2023-09-07T02:11:06;102178.19;;;27.76;100.00
36010;BME280;22076;52.182;5.404;2023-09-07T02:13:34;102169.31;;;27.84;100.00
36010;BME280;22076;52.182;5.404;2023-09-07T02:16:03;102168.81;;;27.80;100.00
36010;BME280;22076;52.182;5.404;2023-09-07T02:18:31;102178.03;;;27.69;100.00
36010;BME280;22076;52.182;5.404;2023-09-07T02:21:02;102168.81;;;27.80;100.00
36010;BME280;22076;52.182;5.404;2023-09-07T02:23:29;102170.66;;;27.63;100.00
36010;BME280;22076;52.182;5.404;2023-09-07T02:25:56;102173.34;;;27.63;100.00
36010;BME280;22076;52.182;5.404;2023-09-07T02:28:23;102179.69;;;27.62;100.00
36010;BME280;22076;52.182;5.404;2023-09-07T02:30:51;102177.22;;;27.69;100.00
36010;BME280;22076;52.182;5.404;2023-09-07T02:33:18;102172.34;;;27.56;100.00
36010;BME280;22076;52.182;5.404;2023-09-07T02:35:44;102178.19;;;27.51;100.00
36010;BME280;22076;52.182;5.404;2023-09-07T02:38:11;102177.53;;;27.49;100.00
36010;BME280;22076;52.182;5.404;2023-09-07T02:40:40;102180.41;;;27.56;100.00
36010;BME280;22076;52.182;5.404;2023-09-07T02:43:07;102176.84;;;27.47;100.00
36010;BME280;22076;52.182;5.404;2023-09-07T02:45:34;102180.22;;;27.49;100.00
36010;BME280;22076;52.182;5.404;2023-09-07T02:48:02;102184.75;;;27.57;100.00
36010;BME280;22076;52.182;5.404;2023-09-07T02:50:32;102180.88;;;27.60;100.00
36010;BME280;22076;52.182;5.404;2023-09-07T02:52:59;102184.72;;;27.49;100.00
36010;BME280;22076;52.182;5.404;2023-09-07T02:55:26;102183.41;;;27.45;100.00
36010;BME280;22076;52.182;5.404;2023-09-07T02:57:53;102190.75;;;27.43;100.00
36010;BME280;22076;52.182;5.404;2023-09-07T03:00:20;102183.06;;;27.40;100.00
36010;BME280;22076;52.182;5.404;2023-09-07T03:02:48;102184.53;;;27.34;100.00
36010;BME280;22076;52.182;5.404;2023-09-07T03:05:16;102192.25;;;27.37;100.00
36010;BME280;22076;52.182;5.404;2023-09-07T03:07:44;102185.91;;;27.46;100.00
36010;BME280;22076;52.182;5.404;2023-09-07T03:10:11;102192.09;;;27.39;100.00
36010;BME280;22076;52.182;5.404;2023-09-07T03:12:38;102182.31;;;27.29;100.00
36010;BME280;22076;52.182;5.404;2023-09-07T03:15:07;102185.34;;;27.34;100.00
36010;BME280;22076;52.182;5.404;2023-09-07T03:17:33;102180.13;;;27.16;100.00
36010;BME280;22076;52.182;5.404;2023-09-07T03:20:01;102187.81;;;27.11;100.00
36010;BME280;22076;52.182;5.404;2023-09-07T03:22:40;102193.38;;;27.18;100.00
36010;BME280;22076;52.182;5.404;2023-09-07T03:25:08;102194.88;;;27.12;100.00
36010;BME280;22076;52.182;5.404;2023-09-07T03:27:35;102196.00;;;27.01;100.00
36010;BME280;22076;52.182;5.404;2023-09-07T03:30:02;102189.31;;;26.97;100.00
36010;BME280;22076;52.182;5.404;2023-09-07T03:32:30;102190.47;;;27.03;100.00
36010;BME280;22076;52.182;5.404;2023-09-07T03:34:58;102192.78;;;26.90;100.00
36010;BME280;22076;52.182;5.404;2023-09-07T03:37:26;102185.75;;;26.88;100.00
36010;BME280;22076;52.182;5.404;2023-09-07T03:39:54;102187.63;;;26.96;100.00
36010;BME280;22076;52.182;5.404;2023-09-07T03:42:21;102183.38;;;26.85;100.00
36010;BME280;22076;52.182;5.404;2023-09-07T03:44:47;102183.53;;;26.84;100.00
36010;BME280;22076;52.182;5.404;2023-09-07T03:47:15;102180.03;;;26.83;100.00
36010;BME280;22076;52.182;5.404;2023-09-07T03:49:42;102174.94;;;26.72;100.00
36010;BME280;22076;52.182;5.404;2023-09-07T03:52:09;102184.28;;;26.68;100.00
36010;BME280;22076;52.182;5.404;2023-09-07T03:54:35;102184.63;;;26.65;100.00
36010;BME280;22076;52.182;5.404;2023-09-07T03:57:04;102183.00;;;26.72;100.00
36010;BME280;22076;52.182;5.404;2023-09-07T03:59:30;102190.59;;;26.59;100.00
36010;BME280;22076;52.182;5.404;2023-09-07T04:01:57;102188.09;;;26.57;100.00
36010;BME280;22076;52.182;5.404;2023-09-07T04:04:23;102186.94;;;26.60;100.00
36010;BME280;22076;52.182;5.404;2023-09-07T04:06:50;102179.88;;;26.59;100.00
36010;BME280;22076;52.182;5.404;2023-09-07T04:09:17;102189.56;;;26.51;100.00
36010;BME280;22076;52.182;5.404;2023-09-07T04:11:43;102185.19;;;26.50;100.00
36010;BME280;22076;52.182;5.404;2023-09-07T04:14:11;102183.19;;;26.52;100.00
36010;BME280;22076;52.182;5.404;2023-09-07T04:16:38;102189.72;;;26.50;100.00
36010;BME280;22076;52.182;5.404;2023-09-07T04:19:04;102186.69;;;26.45;100.00
36010;BME280;22076;52.182;5.404;2023-09-07T04:21:31;102193.88;;;26.44;100.00
36010;BME280;22076;52.182;5.404;2023-09-07T04:23:58;102192.16;;;26.35;100.00
36010;BME280;22076;52.182;5.404;2023-09-07T04:26:24;102187.09;;;26.32;100.00
36010;BME280;22076;52.182;5.404;2023-09-07T04:28:51;102187.72;;;26.26;100.00
36010;BME280;22076;52.182;5.404;2023-09-07T04:31:19;102183.75;;;26.30;100.00
36010;BME280;22076;52.182;5.404;2023-09-07T04:33:46;102176.13;;;26.17;100.00
36010;BME280;22076;52.182;5.404;2023-09-07T04:36:14;102185.16;;;26.16;100.00
36010;BME280;22076;52.182;5.404;2023-09-07T04:38:41;102182.94;;;26.11;100.00
36010;BME280;22076;52.182;5.404;2023-09-07T04:41:08;102179.28;;;26.12;100.00
36010;BME280;22076;52.182;5.404;2023-09-07T04:43:36;102186.47;;;26.12;100.00
36010;BME280;22076;52.182;5.404;2023-09-07T04:46:04;102180.34;;;26.01;100.00
36010;BME280;22076;52.182;5.404;2023-09-07T04:48:32;102187.63;;;26.09;100.00
36010;BME280;22076;52.182;5.404;2023-09-07T04:50:59;102190.84;;;25.95;100.00
36010;BME280;22076;52.182;5.404;2023-09-07T04:53:28;102182.16;;;26.01;100.00
36010;BME280;22076;52.182;5.404;2023-09-07T04:55:55;102186.25;;;25.87;100.00
36010;BME280;22076;52.182;5.404;2023-09-07T04:58:21;102188.41;;;25.83;100.00
36010;BME280;22076;52.182;5.404;2023-09-07T05:00:50;102186.09;;;25.88;100.00
36010;BME280;22076;52.182;5.404;2023-09-07T05:03:17;102193.53;;;25.77;100.00
36010;BME280;22076;52.182;5.404;2023-09-07T05:05:50;102188.63;;;25.90;100.00
36010;BME280;22076;52.182;5.404;2023-09-07T05:08:17;102196.81;;;25.70;100.00
36010;BME280;22076;52.182;5.404;2023-09-07T05:10:44;102190.00;;;25.76;100.00
36010;BME280;22076;52.182;5.404;2023-09-07T05:13:10;102195.34;;;25.76;100.00
36010;BME280;22076;52.182;5.404;2023-09-07T05:15:37;102193.38;;;25.78;100.00
36010;BME280;22076;52.182;5.404;2023-09-07T05:18:12;102204.09;;;25.78;100.00
36010;BME280;22076;52.182;5.404;2023-09-07T05:20:39;102205.94;;;25.78;100.00
36010;BME280;22076;52.182;5.404;2023-09-07T05:23:07;102202.84;;;25.90;100.00
36010;BME280;22076;52.182;5.404;2023-09-07T05:25:33;102205.78;;;25.79;100.00
36010;BME280;22076;52.182;5.404;2023-09-07T05:28:00;102209.44;;;25.78;100.00
36010;BME280;22076;52.182;5.404;2023-09-07T05:30:27;102207.22;;;25.73;100.00
36010;BME280;22076;52.182;5.404;2023-09-07T05:32:54;102213.97;;;25.78;100.00
36010;BME280;22076;52.182;5.404;2023-09-07T05:35:20;102218.44;;;25.77;100.00
36010;BME280;22076;52.182;5.404;2023-09-07T05:37:52;102210.25;;;25.79;100.00
36010;BME280;22076;52.182;5.404;2023-09-07T05:40:20;102221.19;;;25.85;100.00
36010;BME280;22076;52.182;5.404;2023-09-07T05:42:47;102218.44;;;25.77;100.00
36010;BME280;22076;52.182;5.404;2023-09-07T05:45:13;102218.00;;;25.82;100.00
36010;BME280;22076;52.182;5.404;2023-09-07T05:47:40;102220.84;;;25.80;100.00
36010;BME280;22076;52.182;5.404;2023-09-07T05:50:07;102220.38;;;25.85;100.00
36010;BME280;22076;52.182;5.404;2023-09-07T05:52:34;102223.28;;;25.73;100.00
36010;BME280;22076;52.182;5.404;2023-09-07T05:55:00;102218.38;;;25.69;100.00
36010;BME280;22076;52.182;5.404;2023-09-07T05:57:29;102223.19;;;25.83;100.00
36010;BME280;22076;52.182;5.404;2023-09-07T05:59:55;102221.63;;;25.72;100.00
36010;BME280;22076;52.182;5.404;2023-09-07T06:02:22;102222.28;;;25.75;100.00
36010;BME280;22076;52.182;5.404;2023-09-07T06:04:49;102223.97;;;25.76;100.00
36010;BME280;22076;52.182;5.404;2023-09-07T06:07:15;102225.19;;;25.81;100.00
36010;BME280;22076;52.182;5.404;2023-09-07T06:09:42;102229.94;;;25.87;100.00
36010;BME280;22076;52.182;5.404;2023-09-07T06:12:09;102230.16;;;25.94;100.00
36010;BME280;22076;52.182;5.404;2023-09-07T06:14:36;102226.94;;;26.09;100.00
36010;BME280;22076;52.182;5.404;2023-09-07T06:17:03;102238.34;;;26.11;100.00
36010;BME280;22076;52.182;5.404;2023-09-07T06:19:31;102230.75;;;26.24;100.00
36010;BME280;22076;52.182;5.404;2023-09-07T06:21:58;102237.88;;;26.15;100.00
36010;BME280;22076;52.182;5.404;2023-09-07T06:24:24;102240.09;;;26.20;100.00
36010;BME280;22076;52.182;5.404;2023-09-07T06:26:51;102238.50;;;26.27;100.00
36010;BME280;22076;52.182;5.404;2023-09-07T06:29:17;102243.34;;;26.32;100.00
36010;BME280;22076;52.182;5.404;2023-09-07T06:31:45;102237.59;;;26.45;100.00
36010;BME280;22076;52.182;5.404;2023-09-07T06:34:15;102241.91;;;26.37;100.00
36010;BME280;22076;52.182;5.404;2023-09-07T06:36:41;102249.13;;;26.45;100.00
36010;BME280;22076;52.182;5.404;2023-09-07T06:39:08;102243.47;;;26.48;100.00
36010;BME280;22076;52.182;5.404;2023-09-07T06:41:35;102246.00;;;26.50;100.00
36010;BME280;22076;52.182;5.404;2023-09-07T06:44:01;102247.31;;;26.46;100.00
36010;BME280;22076;52.182;5.404;2023-09-07T06:46:30;102247.72;;;26.59;100.00
36010;BME280;22076;52.182;5.404;2023-09-07T06:48:58;102249.88;;;26.55;100.00
36010;BME280;22076;52.182;5.404;2023-09-07T06:51:24;102250.19;;;26.52;100.00
36010;BME280;22076;52.182;5.404;2023-09-07T06:53:52;102253.59;;;26.63;100.00
36010;BME280;22076;52.182;5.404;2023-09-07T06:56:19;102251.34;;;26.50;100.00
36010;BME280;22076;52.182;5.404;2023-09-07T06:58:45;102251.88;;;26.53;100.00
36010;BME280;22076;52.182;5.404;2023-09-07T07:01:12;102253.06;;;26.59;100.00
36010;BME280;22076;52.182;5.404;2023-09-07T07:03:38;102252.25;;;26.59;100.00
36010;BME280;22076;52.182;5.404;2023-09-07T07:06:07;102248.38;;;26.79;100.00
36010;BME280;22076;52.182;5.404;2023-09-07T07:08:34;102251.63;;;26.65;100.00
36010;BME280;22076;52.182;5.404;2023-09-07T07:11:00;102258.97;;;26.63;100.00
36010;BME280;22076;52.182;5.404;2023-09-07T07:13:27;102251.91;;;26.62;100.00
36010;BME280;22076;52.182;5.404;2023-09-07T07:15:54;102257.13;;;26.63;100.00
36010;BME280;22076;52.182;5.404;2023-09-07T07:18:21;102265.53;;;26.68;100.00
36010;BME280;22076;52.182;5.404;2023-09-07T07:20:48;102264.59;;;26.78;100.00
36010;BME280;22076;52.182;5.404;2023-09-07T07:23:17;102257.63;;;26.93;100.00
36010;BME280;22076;52.182;5.404;2023-09-07T07:25:44;102264.16;;;26.91;100.00
36010;BME280;22076;52.182;5.404;2023-09-07T07:28:11;102263.53;;;26.97;100.00
36010;BME280;22076;52.182;5.404;2023-09-07T07:30:38;102258.41;;;27.12;100.00
36010;BME280;22076;52.182;5.404;2023-09-07T07:33:06;102257.59;;;27.19;100.00
36010;BME280;22076;52.182;5.404;2023-09-07T07:35:34;102259.47;;;27.27;100.00
36010;BME280;22076;52.182;5.404;2023-09-07T07:38:01;102260.47;;;27.26;100.00
36010;BME280;22076;52.182;5.404;2023-09-07T07:40:30;102253.25;;;27.35;100.00
36010;BME280;22076;52.182;5.404;2023-09-07T07:42:57;102258.63;;;27.27;100.00
36010;BME280;22076;52.182;5.404;2023-09-07T07:45:24;102260.94;;;27.21;100.00
36010;BME280;22076;52.182;5.404;2023-09-07T07:47:50;102255.50;;;27.40;100.00
36010;BME280;22076;52.182;5.404;2023-09-07T07:50:18;102251.53;;;27.52;100.00
36010;BME280;22076;52.182;5.404;2023-09-07T07:52:45;102242.31;;;27.63;100.00
36010;BME280;22076;52.182;5.404;2023-09-07T07:55:12;102243.66;;;27.67;100.00
36010;BME280;22076;52.182;5.404;2023-09-07T07:57:40;102236.28;;;27.69;100.00
36010;BME280;22076;52.182;5.404;2023-09-07T08:00:07;102242.97;;;27.65;100.00
36010;BME280;22076;52.182;5.404;2023-09-07T08:02:35;102242.31;;;27.63;100.00
36010;BME280;22076;52.182;5.404;2023-09-07T08:05:03;102242.13;;;27.64;100.00
36010;BME280;22076;52.182;5.404;2023-09-07T08:07:30;102240.44;;;27.63;100.00
36010;BME280;22076;52.182;5.404;2023-09-07T08:09:56;102246.50;;;27.74;100.00
36010;BME280;22076;52.182;5.404;2023-09-07T08:12:23;102244.50;;;27.76;100.00
36010;BME280;22076;52.182;5.404;2023-09-07T08:14:51;102233.44;;;27.95;100.00
36010;BME280;22076;52.182;5.404;2023-09-07T08:17:17;102242.66;;;27.84;100.00
36010;BME280;22076;52.182;5.404;2023-09-07T08:19:45;102230.41;;;27.90;100.00
36010;BME280;22076;52.182;5.404;2023-09-07T08:22:13;102233.09;;;27.90;100.00
36010;BME280;22076;52.182;5.404;2023-09-07T08:24:41;102225.19;;;27.97;100.00
36010;BME280;22076;52.182;5.404;2023-09-07T08:27:09;102220.53;;;28.07;100.00
36010;BME280;22076;52.182;5.404;2023-09-07T08:29:43;102216.97;;;28.23;100.00
36010;BME280;22076;52.182;5.404;2023-09-07T08:32:14;102223.69;;;28.35;100.00
36010;BME280;22076;52.182;5.404;2023-09-07T08:34:40;102217.31;;;28.37;100.00
36010;BME280;22076;52.182;5.404;2023-09-07T08:37:08;102218.81;;;28.39;100.00
36010;BME280;22076;52.182;5.404;2023-09-07T08:39:35;102216.25;;;28.54;100.00
36010;BME280;22076;52.182;5.404;2023-09-07T08:42:05;102215.91;;;28.65;100.00
36010;BME280;22076;52.182;5.404;2023-09-07T08:44:33;102215.38;;;28.70;100.00
36010;BME280;22076;52.182;5.404;2023-09-07T08:47:02;102205.59;;;28.77;100.00
36010;BME280;22076;52.182;5.404;2023-09-07T08:49:30;102215.13;;;28.88;100.00
36010;BME280;22076;52.182;5.404;2023-09-07T08:51:59;102211.78;;;28.86;100.00
36010;BME280;22076;52.182;5.404;2023-09-07T08:54:26;102209.56;;;28.98;100.00
36010;BME280;22076;52.182;5.404;2023-09-07T08:56:54;102205.94;;;29.14;100.00
36010;BME280;22076;52.182;5.404;2023-09-07T08:59:22;102216.81;;;29.21;100.00
36010;BME280;22076;52.182;5.404;2023-09-07T09:01:49;102211.44;;;29.29;100.00
36010;BME280;22076;52.182;5.404;2023-09-07T09:04:15;102215.44;;;29.33;100.00
36010;BME280;22076;52.182;5.404;2023-09-07T09:06:44;102197.81;;;29.54;100.00
36010;BME280;22076;52.182;5.404;2023-09-07T09:09:10;102188.25;;;29.51;100.00
36010;BME280;22076;52.182;5.404;2023-09-07T09:11:54;102192.84;;;29.65;100.00
36010;BME280;22076;52.182;5.404;2023-09-07T09:14:22;102191.63;;;29.68;100.00
36010;BME280;22076;52.182;5.404;2023-09-07T09:16:49;102198.38;;;29.64;100.00
36010;BME280;22076;52.182;5.404;2023-09-07T09:19:16;102194.97;;;29.70;100.00
36010;BME280;22076;52.182;5.404;2023-09-07T09:21:57;102195.84;;;29.86;100.00
36010;BME280;22076;52.182;5.404;2023-09-07T09:24:33;102188.84;;;29.99;100.00
36010;BME280;22076;52.182;5.404;2023-09-07T09:27:08;102186.63;;;30.03;100.00
36010;BME280;22076;52.182;5.404;2023-09-07T09:29:49;102189.91;;;30.13;100.00
36010;BME280;22076;52.182;5.404;2023-09-07T09:32:19;102189.16;;;30.20;100.00
36010;BME280;22076;52.182;5.404;2023-09-07T09:34:50;102192.78;;;30.27;100.00
36010;BME280;22076;52.182;5.404;2023-09-07T09:37:19;102195.09;;;30.30;100.00
36010;BME280;22076;52.182;5.404;2023-09-07T09:39:52;102187.53;;;30.48;100.00
36010;BME280;22076;52.182;5.404;2023-09-07T09:42:22;102190.47;;;30.54;100.00
36010;BME280;22076;52.182;5.404;2023-09-07T09:44:50;102189.47;;;30.55;100.00
36010;BME280;22076;52.182;5.404;2023-09-07T09:47:19;102192.75;;;30.50;100.00
36010;BME280;22076;52.182;5.404;2023-09-07T09:49:49;102190.88;;;30.51;100.00
36010;BME280;22076;52.182;5.404;2023-09-07T09:52:16;102182.78;;;30.51;100.00
36010;BME280;22076;52.182;5.404;2023-09-07T09:54:54;102195.22;;;30.67;100.00
36010;BME280;22076;52.182;5.404;2023-09-07T09:57:22;102196.91;;;30.68;100.00
36010;BME280;22076;52.182;5.404;2023-09-07T09:59:48;102191.31;;;30.84;100.00
36010;BME280;22076;52.182;5.404;2023-09-07T10:02:35;102179.81;;;31.12;100.00
36010;BME280;22076;52.182;5.404;2023-09-07T10:05:13;102190.03;;;31.17;100.00
36010;BME280;22076;52.182;5.404;2023-09-07T10:07:42;102177.25;;;31.25;100.00
36010;BME280;22076;52.182;5.404;2023-09-07T10:10:20;102177.53;;;31.30;100.00
36010;BME280;22076;52.182;5.404;2023-09-07T10:12:51;102179.75;;;31.27;100.00
36010;BME280;22076;52.182;5.404;2023-09-07T10:15:24;102176.22;;;31.26;100.00
36010;BME280;22076;52.182;5.404;2023-09-07T10:18:02;102177.13;;;31.34;100.00
36010;BME280;22076;52.182;5.404;2023-09-07T10:20:51;102172.25;;;31.44;100.00
36010;BME280;22076;52.182;5.404;2023-09-07T10:23:19;102168.50;;;31.45;100.00
36010;BME280;22076;52.182;5.404;2023-09-07T10:25:51;102175.81;;;31.51;100.00
36010;BME280;22076;52.182;5.404;2023-09-07T10:28:22;102174.31;;;31.63;100.00
36010;BME280;22076;52.182;5.404;2023-09-07T10:31:01;102169.00;;;31.77;100.00
36010;BME280;22076;52.182;5.404;2023-09-07T10:33:30;102166.72;;;31.74;100.00
36010;BME280;22076;52.182;5.404;2023-09-07T10:35:58;102164.22;;;31.72;100.00
36010;BME280;22076;52.182;5.404;2023-09-07T10:38:29;102171.25;;;31.73;100.00
36010;BME280;22076;52.182;5.404;2023-09-07T10:41:02;102168.03;;;31.85;100.00
36010;BME280;22076;52.182;5.404;2023-09-07T10:43:30;102161.84;;;31.91;100.00
36010;BME280;22076;52.182;5.404;2023-09-07T10:46:11;102166.50;;;32.04;100.00
36010;BME280;22076;52.182;5.404;2023-09-07T10:48:39;102161.94;;;32.04;100.00
36010;BME280;22076;52.182;5.404;2023-09-07T10:51:06;102158.00;;;32.07;100.00
36010;BME280;22076;52.182;5.404;2023-09-07T10:53:41;102161.06;;;32.25;100.00
36010;BME280;22076;52.182;5.404;2023-09-07T10:56:09;102157.63;;;32.45;100.00
36010;BME280;22076;52.182;5.404;2023-09-07T10:58:37;102153.50;;;32.56;100.00
36010;BME280;22076;52.182;5.404;2023-09-07T11:01:08;102162.66;;;32.55;100.00
36010;BME280;22076;52.182;5.404;2023-09-07T11:03:37;102156.63;;;32.53;100.00
36010;BME280;22076;52.182;5.404;2023-09-07T11:06:08;102158.13;;;32.62;100.00
36010;BME280;22076;52.182;5.404;2023-09-07T11:08:37;102151.84;;;32.61;100.00
36010;BME280;22076;52.182;5.404;2023-09-07T11:11:04;102141.03;;;32.68;100.00
36010;BME280;22076;52.182;5.404;2023-09-07T11:13:33;102139.25;;;32.82;100.00
36010;BME280;22076;52.182;5.404;2023-09-07T11:16:00;102146.72;;;32.73;100.00
36010;BME280;22076;52.182;5.404;2023-09-07T11:18:28;102136.56;;;32.82;100.00
36010;BME280;22076;52.182;5.404;2023-09-07T11:20:56;102141.75;;;32.84;100.00
36010;BME280;22076;52.182;5.404;2023-09-07T11:23:31;102128.50;;;33.02;100.00
36010;BME280;22076;52.182;5.404;2023-09-07T11:26:09;102128.72;;;33.07;100.00
36010;BME280;22076;52.182;5.404;2023-09-07T11:28:37;102118.91;;;33.20;100.00
36010;BME280;22076;52.182;5.404;2023-09-07T11:31:04;102119.56;;;33.22;100.00
36010;BME280;22076;52.182;5.404;2023-09-07T11:33:32;102118.56;;;33.30;100.00
36010;BME280;22076;52.182;5.404;2023-09-07T11:35:59;102121.69;;;33.40;100.00
36010;BME280;22076;52.182;5.404;2023-09-07T11:38:28;102110.19;;;33.58;100.00
36010;BME280;22076;52.182;5.404;2023-09-07T11:40:56;102106.03;;;33.62;100.00
36010;BME280;22076;52.182;5.404;2023-09-07T11:43:24;102111.44;;;33.69;100.00
36010;BME280;22076;52.182;5.404;2023-09-07T11:45:53;102102.28;;;33.83;100.00
36010;BME280;22076;52.182;5.404;2023-09-07T11:48:20;102104.13;;;33.83;100.00
36010;BME280;22076;52.182;5.404;2023-09-07T11:50:47;102101.19;;;33.77;100.00
36010;BME280;22076;52.182;5.404;2023-09-07T11:53:19;102098.69;;;34.03;100.00
36010;BME280;22076;52.182;5.404;2023-09-07T11:55:45;102102.00;;;34.05;100.00
36010;BME280;22076;52.182;5.404;2023-09-07T11:58:28;102091.13;;;34.18;100.00
36010;BME280;22076;52.182;5.404;2023-09-07T12:00:59;102096.53;;;34.18;100.00
36010;BME280;22076;52.182;5.404;2023-09-07T12:03:28;102098.59;;;34.23;100.00
36010;BME280;22076;52.182;5.404;2023-09-07T12:06:05;102091.72;;;34.34;100.00
36010;BME280;22076;52.182;5.404;2023-09-07T12:08:32;102089.81;;;34.34;100.00
36010;BME280;22076;52.182;5.404;2023-09-07T12:10:58;102097.53;;;34.37;100.00
36010;BME280;22076;52.182;5.404;2023-09-07T12:13:25;102085.44;;;34.33;100.00
36010;BME280;22076;52.182;5.404;2023-09-07T12:15:59;102086.00;;;34.49;100.00
36010;BME280;22076;52.182;5.404;2023-09-07T12:18:27;102082.88;;;34.52;100.00
36010;BME280;22076;52.182;5.404;2023-09-07T12:21:02;102076.84;;;34.75;100.00
36010;BME280;22076;52.182;5.404;2023-09-07T12:23:29;102080.44;;;34.75;100.00
36010;BME280;22076;52.182;5.404;2023-09-07T12:25:56;102077.47;;;34.84;100.00
36010;BME280;22076;52.182;5.404;2023-09-07T12:28:23;102080.38;;;34.82;100.00
36010;BME280;22076;52.182;5.404;2023-09-07T12:30:49;102088.97;;;34.79;100.00
36010;BME280;22076;52.182;5.404;2023-09-07T12:33:18;102076.09;;;35.00;100.00
36010;BME280;22076;52.182;5.404;2023-09-07T12:35:52;102072.94;;;35.03;100.00
36010;BME280;22076;52.182;5.404;2023-09-07T12:38:19;102067.91;;;35.06;100.00
36010;BME280;22076;52.182;5.404;2023-09-07T12:40:56;102065.38;;;35.12;100.00
36010;BME280;22076;52.182;5.404;2023-09-07T12:43:31;102068.38;;;35.22;100.00
36010;BME280;22076;52.182;5.404;2023-09-07T12:45:58;102062.97;;;35.22;100.00